deformed-offering

Nearby METAR Reports

 

KSJC - San Jose, California, USA
Distance from station: NE 9mi, 14km
Updated: Wed, 12-May-2021 4:53am PDT
Clear
Clear
 Wind from SSE
Wind: SSE 7 mph , 11 km/h
Temperature: 55°F , 13°C
Dew Point: 46°F , 8°C
Humidity: 72%
Barometer: 29.93 inHg , 1013.5 hPa
Clouds: Clear
Visibility: 10 miles , 16 km
2021/05/12 11:53 KSJC 121153Z AUTO 16006KT 10SM CLR 13/08 A2993 RMK AO2 SLP136 T01330083 10150 20122 56001
KRHV - San Jose/Reid, California, USA
Distance from station: ENE 12mi, 19km
Updated: Tue, 11-May-2021 9:55pm PDT
NOT Current
Clear
Clear
 Wind from calm
Wind: Calm
Temperature: 64°F , 18°C
Dew Point: 52°F , 11°C
Humidity: 64%
Barometer: 29.93 inHg , 1013.5 hPa
Clouds: Clear
Visibility: 10 miles , 16 km
2021/05/12 04:55 KRHV 120455Z 00000KT 10SM SKC 18/11 A2993 RMK LAST
 
KPAO - Palo Alto, California, USA
Distance from station: NNW 14mi, 23km
Updated: Tue, 11-May-2021 8:47pm PDT
NOT Current
Clear
Clear
 Wind from NW
Wind: NW 12 mph , 19 km/h
Temperature: 61°F , 16°C
Dew Point: 54°F , 12°C
Humidity: 77%
Barometer: 29.91 inHg , 1012.9 hPa
Clouds: Clear
Visibility: 10 miles , 16 km
2021/05/12 03:47 KPAO 120347Z 32010KT 10SM SKC 16/12 A2991 RMK LAST
KSQL - San Carlos Airpo, California, USA
Distance from station: NW 21mi, 34km
Updated: Wed, 12-May-2021 4:55am PDT
Few Clouds
Few Clouds
 Wind from calm
Wind: Calm
Temperature: 54°F , 12°C
Dew Point: 48°F , 9°C
Humidity: 82%
Barometer: 29.95 inHg , 1014.2 hPa
Clouds: Few Clouds
Visibility: 10 miles , 16 km
Cloud details: Few Clouds 800 ft
2021/05/12 11:55 KSQL 121155Z AUTO 00000KT 10SM FEW008 12/09 A2995 RMK AO2
 
KWVI - Watsonville, California, USA
Distance from station: SSE 27mi, 44km
Updated: Wed, 12-May-2021 5:00am PDT
Mist, Overcast
Mist, Overcast
 Wind from calm
Wind: Calm
Temperature: 50°F , 10°C
Dew Point: 48°F , 9°C
Humidity: 94%
Barometer: 29.98 inHg , 1015.2 hPa
Summary: Mist
Clouds: Overcast
Visibility: 2 1/2 miles , 4 km
Cloud details: Overcast 200 ft
2021/05/12 12:00 KWVI 121200Z AUTO 00000KT 2 1/2SM BR OVC002 10/09 A2998 RMK AO2 T01000094
KHWD - Hayward, California, USA
Distance from station: N 28mi, 44km
Updated: Wed, 12-May-2021 4:54am PDT
Clear
Clear
 Wind from calm
Wind: Calm
Temperature: 52°F , 11°C
Dew Point: 48°F , 9°C
Humidity: 88%
Barometer: 29.93 inHg , 1013.5 hPa
Clouds: Clear
Visibility: 10 miles , 16 km
2021/05/12 11:54 KHWD 121154Z 00000KT 10SM CLR 11/09 A2993 RMK AO2 SLP145 T01060089 10122 20100 53000
 
KSFO - San Francisco, California, USA
Distance from station: NW 30mi, 49km
Updated: Wed, 12-May-2021 4:56am PDT
Few Clouds
Few Clouds
 Wind from WNW
Wind: WNW 9 mph , 15 km/h
Temperature: 50°F , 10°C
Wind Chill: 46°F , 8°C
Dew Point: 46°F , 8°C
Humidity: 88%
Barometer: 29.94 inHg , 1013.9 hPa
Clouds: Few Clouds
Visibility: 10 miles , 16 km
Cloud details: Few Clouds 400 ft
2021/05/12 11:56 KSFO 121156Z 29008KT 10SM FEW004 10/08 A2994 RMK AO2 SLP138 T01000083 10122 20100 53001
KHAF - Half Moon Bay, California, USA
Distance from station: WNW 31mi, 50km
Updated: Wed, 12-May-2021 4:55am PDT
Fog, Overcast
Fog, Overcast
 Wind from ESE
Wind: ESE 6 mph , 9 km/h
Temperature: 46°F , 8°C
Wind Chill: 43°F , 6°C
Dew Point: 46°F , 8°C
Humidity: 100%
Barometer: 29.96 inHg , 1014.6 hPa
Summary: Fog
Clouds: Overcast
Visibility: 1/2 mile , 0.8 km
Cloud details: Overcast 200 ft
2021/05/12 11:55 KHAF 121155Z AUTO 12005KT 1/2SM FG OVC002 08/08 A2996 RMK AO2
 
KLVK - Livermore, California, USA
Distance from station: NNE 31mi, 51km
Updated: Wed, 12-May-2021 4:53am PDT
Clear
Clear
 Wind from NE
Wind: NE 3 mph , 6 km/h
Temperature: 55°F , 13°C
Dew Point: 43°F , 6°C
Humidity: 63%
Barometer: 29.92 inHg , 1013.2 hPa
Clouds: Clear
Visibility: 10 miles , 16 km
2021/05/12 11:53 KLVK 121153Z AUTO 05003KT 10SM CLR 13/06 A2992 RMK AO2 SLP129 T01280056 10189 20128 53003
KOAK - Oakland, California, USA
Distance from station: NNW 33mi, 53km
Updated: Wed, 12-May-2021 4:53am PDT
Mist, Shallow, Fog, Mostly cloudy
Mist, Shallow, Fog, Mostly cloudy
 Wind from N
Wind: N 6 mph , 9 km/h
Temperature: 52°F , 11°C
Dew Point: 48°F , 9°C
Humidity: 88%
Barometer: 29.95 inHg , 1014.2 hPa
Summary: Mist, Shallow, Fog
Clouds: Mostly Cloudy
Visibility: 4 miles , 6 km
Cloud details: Mostly Cloudy 500 ft
2021/05/12 11:53 KOAK 121153Z 35005KT 4SM BR MIFG BKN005 11/09 A2995 RMK AO2 SLP141 T01060089 10117 20094 53001
 
KCVH - Hollister Muni, California, USA
Distance from station: SE 42mi, 68km
Updated: Wed, 12-May-2021 4:55am PDT
Fog, Overcast
Fog, Overcast
 Wind from calm
Wind: Calm
Temperature: 48°F , 9°C
Dew Point: 46°F , 8°C
Humidity: 94%
Barometer: 29.97 inHg , 1014.9 hPa
Summary: Fog
Clouds: Overcast
Visibility: less than 1/4 mile , 0.4 km
Cloud details: Overcast 100 ft
2021/05/12 11:55 KCVH 121155Z AUTO 00000KT M1/4SM FG OVC001 09/08 A2997 RMK A01
KSNS - Salinas, California, USA
Distance from station: SSE 48mi, 77km
Updated: Wed, 12-May-2021 4:53am PDT
Mist, Overcast
Mist, Overcast
 Wind from calm
Wind: Calm
Temperature: 52°F , 11°C
Dew Point: 48°F , 9°C
Humidity: 88%
Barometer: 29.97 inHg , 1014.9 hPa
Summary: Mist
Clouds: Overcast
Visibility: 6 miles , 10 km
Cloud details: Overcast 300 ft
2021/05/12 11:53 KSNS 121153Z AUTO 00000KT 6SM BR OVC003 11/09 A2997 RMK AO2 SLP157 T01060094 10117 20106 53002
 
KMRY - Monterey, California, USA
Distance from station: SSE 49mi, 78km
Updated: Wed, 12-May-2021 4:54am PDT
Overcast
Overcast
 Wind from SE
Wind: SE 6 mph , 9 km/h
Temperature: 52°F , 11°C
Dew Point: 46°F , 8°C
Humidity: 82%
Barometer: 29.97 inHg , 1014.9 hPa
Clouds: Overcast
Visibility: 7 miles , 11 km
Cloud details: Overcast 300 ft
2021/05/12 11:54 KMRY 121154Z AUTO 13005KT 7SM OVC003 11/08 A2997 RMK AO2 SLP161 T01060083 10122 20106 53002
KCCR - Concord, California, USA
Distance from station: N 50mi, 81km
Updated: Wed, 12-May-2021 4:53am PDT
Clear
Clear
 Wind from NW
Wind: NW 3 mph , 6 km/h
Temperature: 54°F , 12°C
Dew Point: 48°F , 9°C
Humidity: 82%
Barometer: 29.92 inHg , 1013.2 hPa
Clouds: Clear
Visibility: 10 miles , 16 km
2021/05/12 11:53 KCCR 121153Z AUTO 31003KT 10SM CLR 12/09 A2992 RMK AO2 SLP117 T01170089 10206 20117 53004
deformed-offering